createdAt,value
2023-05-22T00:02:24.353Z,67.17
2023-05-22T00:04:58.637Z,67.65
2023-05-22T00:07:30.065Z,67.13
2023-05-22T00:10:01.482Z,67.77
2023-05-22T00:12:33.804Z,67.35
2023-05-22T00:15:05.990Z,67.89
2023-05-22T00:17:37.535Z,67.85
2023-05-22T00:20:10.862Z,67.32
2023-05-22T00:22:42.260Z,68.20
2023-05-22T00:25:13.741Z,68.06
2023-05-22T00:27:45.211Z,68.22
2023-05-22T00:30:16.713Z,67.88
2023-05-22T00:32:48.048Z,68.36
2023-05-22T00:35:19.544Z,67.92
2023-05-22T00:37:50.897Z,68.02
2023-05-22T00:40:22.352Z,68.24
2023-05-22T00:42:53.803Z,68.38
2023-05-22T00:45:25.464Z,68.45
2023-05-22T00:47:56.893Z,68.60
2023-05-22T00:50:28.376Z,68.33
2023-05-22T00:52:59.822Z,69.03
2023-05-22T00:55:31.412Z,68.61
2023-05-22T00:58:07.700Z,69.03
2023-05-22T01:00:42.100Z,68.82
2023-05-22T01:03:15.014Z,69.38
2023-05-22T01:05:46.530Z,69.12
2023-05-22T01:08:18.036Z,68.87
2023-05-22T01:11:08.163Z,69.49
2023-05-22T01:14:24.839Z,69.25
2023-05-22T01:17:23.669Z,69.65
2023-05-22T01:20:07.419Z,69.63
2023-05-22T01:23:30.099Z,69.46
2023-05-22T01:26:31.901Z,69.40
2023-05-22T01:29:19.451Z,69.36
2023-05-22T01:31:52.620Z,69.85
2023-05-22T01:34:25.755Z,69.88
2023-05-22T01:36:58.012Z,70.06
2023-05-22T01:39:30.448Z,70.40
2023-05-22T01:42:02.363Z,70.47
2023-05-22T01:44:33.695Z,70.34
2023-05-22T01:47:05.792Z,70.84
2023-05-22T01:49:37.622Z,70.55
2023-05-22T01:52:32.008Z,70.75
2023-05-22T01:55:21.116Z,70.86
2023-05-22T01:58:02.822Z,70.85
2023-05-22T02:00:36.226Z,70.76
2023-05-22T02:03:13.500Z,70.71
2023-05-22T02:05:46.956Z,70.62
2023-05-22T02:08:20.368Z,70.66
2023-05-22T02:10:55.875Z,70.67
2023-05-22T02:13:27.721Z,70.88
2023-05-22T02:15:59.221Z,70.71
2023-05-22T02:18:31.369Z,71.33
2023-05-22T02:21:03.253Z,70.76
2023-05-22T02:23:34.966Z,70.77
2023-05-22T02:26:06.631Z,70.57
2023-05-22T02:28:38.145Z,70.82
2023-05-22T02:31:09.509Z,70.74
2023-05-22T02:33:40.938Z,70.67
2023-05-22T02:36:14.336Z,70.38
2023-05-22T02:38:45.695Z,70.57
2023-05-22T02:41:17.153Z,70.42
2023-05-22T02:43:48.455Z,70.37
2023-05-22T02:46:19.891Z,70.61
2023-05-22T02:48:51.220Z,70.04
2023-05-22T02:51:22.617Z,70.17
2023-05-22T02:53:53.943Z,70.43
2023-05-22T02:56:27.744Z,69.95
2023-05-22T02:58:59.119Z,70.02
2023-05-22T03:01:31.163Z,70.60
2023-05-22T03:04:02.571Z,70.55
2023-05-22T03:06:35.028Z,70.21
2023-05-22T03:09:06.384Z,69.89
2023-05-22T03:11:37.858Z,70.25
2023-05-22T03:14:09.197Z,70.63
2023-05-22T03:16:41.505Z,70.01
2023-05-22T03:19:14.772Z,69.87
2023-05-22T03:21:48.328Z,69.87
2023-05-22T03:24:19.680Z,69.75
2023-05-22T03:26:51.145Z,69.79
2023-05-22T03:29:22.538Z,69.85
2023-05-22T03:31:54.637Z,69.67
2023-05-22T03:34:27.347Z,69.54
2023-05-22T03:36:58.674Z,69.62
2023-05-22T03:39:30.084Z,69.59
2023-05-22T03:42:01.493Z,69.41
2023-05-22T03:44:32.823Z,69.36
2023-05-22T03:47:04.531Z,69.28
2023-05-22T03:49:35.945Z,69.34
2023-05-22T03:52:10.116Z,69.28
2023-05-22T03:54:41.418Z,69.06
2023-05-22T03:57:12.744Z,68.59
2023-05-22T03:59:44.051Z,68.83
2023-05-22T04:02:16.704Z,68.29
2023-05-22T04:04:48.489Z,68.82
2023-05-22T04:07:20.260Z,68.29
2023-05-22T04:09:51.603Z,67.73
2023-05-22T04:12:22.946Z,68.18
2023-05-22T04:14:54.304Z,68.17
2023-05-22T04:17:30.856Z,67.80
2023-05-22T04:20:02.317Z,68.15
2023-05-22T04:22:33.878Z,67.72
2023-05-22T04:25:05.701Z,67.98
2023-05-22T04:27:37.912Z,67.86
2023-05-22T04:30:10.427Z,67.68
2023-05-22T04:32:41.824Z,67.43
2023-05-22T04:35:13.239Z,67.50
2023-05-22T04:37:45.585Z,67.40
2023-05-22T04:40:17.086Z,67.24
2023-05-22T04:42:48.417Z,67.34
2023-05-22T04:45:21.119Z,67.14
2023-05-22T04:47:53.182Z,67.10
2023-05-22T04:50:24.841Z,66.70
2023-05-22T04:52:57.364Z,66.65
2023-05-22T04:55:29.521Z,66.41
2023-05-22T04:58:00.955Z,65.91
2023-05-22T05:00:32.499Z,66.03
2023-05-22T05:03:04.065Z,65.57
2023-05-22T05:05:35.581Z,65.30
2023-05-22T05:08:06.903Z,65.62
2023-05-22T05:10:38.509Z,65.36
2023-05-22T05:13:10.018Z,64.91
2023-05-22T05:15:41.355Z,64.33
2023-05-22T05:18:12.983Z,63.79
2023-05-22T05:20:44.394Z,63.78
2023-05-22T05:23:15.943Z,64.02
2023-05-22T05:25:47.249Z,63.50
2023-05-22T05:28:18.665Z,63.51
2023-05-22T05:30:50.049Z,62.93
2023-05-22T05:33:21.560Z,62.70
2023-05-22T05:35:53.566Z,62.97
2023-05-22T05:38:25.048Z,62.42
2023-05-22T05:40:56.368Z,62.59
2023-05-22T05:43:28.248Z,62.37
2023-05-22T05:46:00.095Z,62.02
2023-05-22T05:48:31.489Z,61.90
2023-05-22T05:51:02.918Z,61.78
2023-05-22T05:53:34.279Z,61.37
2023-05-22T05:56:06.594Z,61.55
2023-05-22T05:58:37.992Z,61.01
2023-05-22T06:01:09.568Z,61.07
2023-05-22T06:03:41.202Z,60.52
2023-05-22T06:06:12.689Z,59.97
2023-05-22T06:08:44.589Z,58.92
2023-05-22T06:11:15.900Z,58.00
2023-05-22T06:13:47.228Z,57.44
2023-05-22T06:16:18.724Z,57.30
2023-05-22T06:18:52.407Z,57.16
2023-05-22T06:21:24.457Z,57.62
2023-05-22T06:23:55.857Z,57.30
2023-05-22T06:26:27.640Z,57.15
2023-05-22T06:28:58.968Z,56.90
2023-05-22T06:31:30.377Z,56.79
2023-05-22T06:34:01.823Z,55.81
2023-05-22T06:36:34.653Z,55.41
2023-05-22T06:39:06.754Z,54.97
2023-05-22T06:41:38.082Z,54.80
2023-05-22T06:44:09.459Z,54.40
2023-05-22T06:46:41.006Z,54.12
2023-05-22T06:49:12.681Z,54.01
2023-05-22T06:51:43.999Z,53.32
2023-05-22T06:54:15.391Z,53.22
2023-05-22T06:56:46.855Z,52.30
2023-05-22T06:59:18.210Z,52.53
2023-05-22T07:01:49.567Z,52.15
2023-05-22T07:04:20.900Z,51.89
2023-05-22T07:06:52.508Z,51.14
2023-05-22T07:09:23.899Z,50.96
2023-05-22T07:11:55.231Z,51.21
2023-05-22T07:14:26.542Z,50.70
2023-05-22T07:16:57.934Z,50.04
2023-05-22T07:19:29.493Z,50.24
2023-05-22T07:22:01.162Z,49.67
2023-05-22T07:24:32.507Z,49.63
2023-05-22T07:27:04.428Z,49.57
2023-05-22T07:29:36.207Z,48.85
2023-05-22T07:32:08.111Z,48.26
2023-05-22T07:34:39.546Z,48.86
2023-05-22T07:37:12.867Z,48.53
2023-05-22T07:39:46.439Z,48.52
2023-05-22T07:42:17.864Z,48.53
2023-05-22T07:44:49.326Z,48.62
2023-05-22T07:47:20.711Z,47.98
2023-05-22T07:49:52.025Z,48.06
2023-05-22T07:52:23.831Z,48.25
2023-05-22T07:54:55.324Z,47.44
2023-05-22T07:57:26.678Z,47.28
2023-05-22T07:59:59.186Z,47.58
2023-05-22T08:02:30.590Z,48.24
2023-05-22T08:05:04.359Z,47.99
2023-05-22T08:07:36.438Z,47.49
2023-05-22T08:10:13.955Z,47.52
2023-05-22T08:12:45.380Z,48.03
2023-05-22T08:15:16.706Z,47.65
2023-05-22T08:17:48.053Z,47.36
2023-05-22T08:20:19.412Z,46.84
2023-05-22T08:22:51.771Z,46.34
2023-05-22T08:25:23.172Z,46.24
2023-05-22T08:27:54.505Z,46.32
2023-05-22T08:30:25.850Z,45.97
2023-05-22T08:32:57.319Z,45.98
2023-05-22T08:35:28.709Z,45.68
2023-05-22T08:38:00.131Z,45.48
2023-05-22T08:40:40.261Z,45.52
2023-05-22T08:43:12.873Z,44.96
2023-05-22T08:45:44.406Z,44.62
2023-05-22T08:48:19.368Z,44.82
2023-05-22T08:50:57.336Z,44.25
2023-05-22T08:53:29.544Z,44.11
2023-05-22T08:56:08.581Z,43.20
2023-05-22T08:58:40.856Z,43.39
2023-05-22T09:01:13.911Z,42.69
2023-05-22T09:03:49.315Z,42.62
2023-05-22T09:06:20.628Z,42.96
2023-05-22T09:08:53.281Z,42.87
2023-05-22T09:11:26.086Z,42.57
2023-05-22T09:14:08.424Z,41.56
2023-05-22T09:16:47.097Z,41.12
2023-05-22T09:19:18.954Z,41.30
2023-05-22T09:21:51.280Z,41.21
2023-05-22T09:24:22.583Z,40.78
2023-05-22T09:26:53.984Z,40.84
2023-05-22T09:29:25.712Z,40.30
2023-05-22T09:31:57.260Z,39.85
2023-05-22T09:34:29.780Z,40.12
2023-05-22T09:37:05.597Z,39.68
2023-05-22T09:39:47.485Z,39.64
2023-05-22T09:42:18.991Z,39.79
2023-05-22T09:44:51.530Z,39.82
2023-05-22T09:47:23.909Z,39.12
2023-05-22T09:49:57.517Z,38.78
2023-05-22T09:52:29.111Z,39.14
2023-05-22T09:55:04.633Z,38.43
2023-05-22T09:57:46.392Z,38.57
2023-05-22T10:00:18.407Z,38.35
2023-05-22T10:03:09.236Z,38.25
2023-05-22T10:05:43.524Z,38.47
2023-05-22T10:08:20.851Z,38.08
2023-05-22T10:10:53.121Z,37.28
2023-05-22T10:13:25.212Z,38.02
2023-05-22T10:15:57.194Z,37.04
2023-05-22T10:18:28.852Z,36.81
2023-05-22T10:21:00.624Z,37.03
2023-05-22T10:23:32.375Z,36.47
2023-05-22T10:26:04.589Z,36.08
2023-05-22T10:28:42.774Z,36.56
2023-05-22T10:31:40.053Z,36.34
2023-05-22T10:34:22.061Z,35.86
2023-05-22T10:37:16.483Z,34.92
2023-05-22T10:39:51.618Z,35.58
2023-05-22T10:42:23.095Z,35.08
2023-05-22T10:44:54.447Z,34.27
2023-05-22T10:47:26.150Z,33.83
2023-05-22T10:50:09.462Z,33.57
2023-05-22T10:52:44.518Z,33.58
2023-05-22T10:55:22.516Z,33.26
2023-05-22T10:57:55.451Z,33.33
2023-05-22T11:00:30.535Z,33.65
2023-05-22T11:03:18.014Z,33.32
2023-05-22T11:05:54.022Z,33.40
2023-05-22T11:08:25.288Z,33.95
2023-05-22T11:10:59.185Z,33.83
2023-05-22T11:13:31.272Z,33.63
2023-05-22T11:16:05.215Z,33.41
2023-05-22T11:18:36.633Z,33.36
2023-05-22T11:21:10.188Z,32.88
2023-05-22T11:23:41.660Z,32.47
2023-05-22T11:26:22.231Z,32.62
2023-05-22T11:28:54.160Z,32.16
2023-05-22T11:31:26.826Z,32.97
2023-05-22T11:33:58.544Z,32.36
2023-05-22T11:36:30.145Z,32.88
2023-05-22T11:39:01.495Z,32.49
2023-05-22T11:41:34.219Z,32.54
2023-05-22T11:44:08.128Z,32.38
2023-05-22T11:46:39.903Z,31.98
2023-05-22T11:49:14.765Z,31.73
2023-05-22T11:51:48.764Z,32.05
2023-05-22T11:54:20.408Z,32.43
2023-05-22T11:56:51.783Z,33.03
2023-05-22T11:59:23.161Z,32.51
2023-05-22T12:01:54.640Z,33.02
2023-05-22T12:04:26.485Z,32.81
2023-05-22T12:06:58.067Z,33.20
2023-05-22T12:09:29.564Z,32.91
2023-05-22T12:12:01.306Z,32.86
2023-05-22T12:14:32.780Z,32.80
2023-05-22T12:17:04.557Z,32.51
2023-05-22T12:19:47.209Z,32.83
2023-05-22T12:22:21.248Z,32.92
2023-05-22T12:24:53.931Z,32.74
2023-05-22T12:27:33.073Z,33.34
2023-05-22T12:30:13.574Z,33.01
2023-05-22T12:32:49.397Z,32.95
2023-05-22T12:35:20.928Z,33.47
2023-05-22T12:37:52.374Z,33.45
2023-05-22T12:40:23.773Z,33.51
2023-05-22T12:42:55.329Z,33.07
2023-05-22T12:45:26.720Z,33.48
2023-05-22T12:47:58.050Z,33.67
2023-05-22T12:50:29.416Z,33.00
2023-05-22T12:53:03.856Z,32.84
2023-05-22T12:55:35.725Z,32.83
2023-05-22T12:58:07.351Z,32.67
2023-05-22T13:00:38.989Z,32.94
2023-05-22T13:03:12.000Z,32.25
2023-05-22T13:05:43.406Z,31.88
2023-05-22T13:08:14.813Z,31.72
2023-05-22T13:10:46.154Z,31.36
2023-05-22T13:13:17.602Z,31.22
2023-05-22T13:15:49.067Z,31.07
2023-05-22T13:18:20.485Z,30.96
2023-05-22T13:20:51.958Z,31.00
2023-05-22T13:23:23.565Z,30.71
2023-05-22T13:25:55.133Z,31.36
2023-05-22T13:28:26.617Z,31.50
2023-05-22T13:30:57.925Z,31.70
2023-05-22T13:33:29.353Z,32.13
2023-05-22T13:36:01.133Z,31.76
2023-05-22T13:38:32.503Z,31.54
2023-05-22T13:41:03.975Z,32.46
2023-05-22T13:43:35.337Z,32.56
2023-05-22T13:46:06.951Z,32.29
2023-05-22T13:48:38.756Z,32.34
2023-05-22T13:51:10.083Z,31.88
2023-05-22T13:53:41.431Z,31.72
2023-05-22T13:56:12.832Z,32.76
2023-05-22T13:58:44.287Z,32.73
2023-05-22T14:01:15.740Z,32.63
2023-05-22T14:03:47.151Z,32.46
2023-05-22T14:06:18.620Z,33.19
2023-05-22T14:08:49.936Z,32.66
2023-05-22T14:11:22.435Z,33.14
2023-05-22T14:13:54.136Z,33.46
2023-05-22T14:16:25.574Z,33.74
2023-05-22T14:18:57.117Z,33.72
2023-05-22T14:21:28.595Z,34.06
2023-05-22T14:24:02.346Z,34.48
2023-05-22T14:26:33.737Z,34.64
2023-05-22T14:29:05.329Z,35.20
2023-05-22T14:31:50.499Z,37.79
2023-05-22T14:34:22.936Z,39.87
2023-05-22T14:36:56.486Z,44.24
2023-05-22T14:39:27.990Z,49.22
2023-05-22T14:41:59.373Z,54.25
2023-05-22T14:44:30.701Z,59.03
2023-05-22T14:47:02.032Z,63.19
2023-05-22T14:49:33.369Z,66.67
2023-05-22T14:52:04.941Z,69.14
2023-05-22T14:54:36.290Z,71.90
2023-05-22T14:57:07.609Z,74.79
2023-05-22T14:59:38.998Z,80.17
2023-05-22T15:02:10.503Z,84.39
2023-05-22T15:04:41.874Z,86.49
2023-05-22T15:07:13.205Z,87.95
2023-05-22T15:09:44.522Z,89.62
2023-05-22T15:12:15.854Z,90.99
2023-05-22T15:14:47.167Z,91.90
2023-05-22T15:17:18.583Z,92.78
2023-05-22T15:19:49.984Z,93.54
2023-05-22T15:22:21.400Z,94.09
2023-05-22T15:25:11.352Z,95.00
2023-05-22T15:27:42.804Z,95.73
2023-05-22T15:30:17.324Z,96.90
2023-05-22T15:32:49.077Z,97.41
2023-05-22T15:35:20.749Z,97.75
2023-05-22T15:37:52.586Z,97.96
2023-05-22T15:40:24.060Z,98.82
2023-05-22T15:42:55.820Z,98.89
2023-05-22T15:45:27.482Z,99.44
2023-05-22T15:47:59.010Z,100.00
2023-05-22T15:50:31.391Z,100.00
2023-05-22T15:53:02.779Z,100.00
2023-05-22T15:55:34.527Z,100.00
2023-05-22T15:58:07.733Z,100.00
2023-05-22T16:00:41.241Z,100.00
2023-05-22T16:03:13.240Z,100.00
2023-05-22T16:05:46.914Z,100.00
2023-05-22T16:08:18.379Z,100.00
2023-05-22T16:10:49.828Z,100.00
2023-05-22T16:13:21.255Z,100.00
2023-05-22T16:15:52.995Z,99.81
2023-05-22T16:18:24.369Z,100.00
2023-05-22T16:20:55.748Z,100.00
2023-05-22T16:23:27.180Z,100.00
2023-05-22T16:25:58.500Z,99.62
2023-05-22T16:28:29.883Z,100.00
2023-05-22T16:31:01.314Z,100.00
2023-05-22T16:33:34.342Z,100.00
2023-05-22T16:36:06.983Z,99.69
2023-05-22T16:38:38.385Z,99.90
2023-05-22T16:41:09.727Z,100.00
2023-05-22T16:43:41.211Z,100.00
2023-05-22T16:46:12.779Z,100.00
2023-05-22T16:48:44.320Z,100.00
2023-05-22T16:51:15.966Z,99.88
2023-05-22T16:53:49.416Z,100.00
2023-05-22T16:56:21.024Z,100.00
2023-05-22T16:58:52.508Z,99.80
2023-05-22T17:01:23.957Z,100.00
2023-05-22T17:03:55.436Z,100.00
2023-05-22T17:06:27.669Z,100.00
2023-05-22T17:08:58.997Z,100.00
2023-05-22T17:11:30.470Z,100.00
2023-05-22T17:14:02.008Z,100.00
2023-05-22T17:16:33.441Z,100.00
2023-05-22T17:19:04.905Z,100.00
2023-05-22T17:21:38.086Z,100.00
2023-05-22T17:24:11.615Z,100.00
2023-05-22T17:26:45.229Z,100.00
2023-05-22T17:29:17.075Z,100.00
2023-05-22T17:31:48.568Z,100.00
2023-05-22T17:34:19.928Z,100.00
2023-05-22T17:36:51.225Z,100.00
2023-05-22T17:39:22.658Z,100.00
2023-05-22T17:41:54.520Z,100.00
2023-05-22T17:44:26.146Z,100.00
2023-05-22T17:46:57.837Z,100.00
2023-05-22T17:49:29.298Z,100.00
2023-05-22T17:52:00.707Z,100.00
2023-05-22T17:54:35.789Z,100.00
2023-05-22T17:57:07.205Z,100.00
2023-05-22T17:59:40.395Z,100.00
2023-05-22T18:02:12.046Z,100.00
2023-05-22T18:04:43.527Z,100.00
2023-05-22T18:07:17.123Z,100.00
2023-05-22T18:09:48.544Z,100.00
2023-05-22T18:14:54.323Z,100.00
2023-05-22T18:17:26.378Z,100.00
2023-05-22T18:19:57.885Z,100.00
2023-05-22T18:22:29.213Z,100.00
2023-05-22T18:25:01.265Z,100.00
2023-05-22T18:27:33.202Z,100.00
2023-05-22T18:30:05.282Z,100.00
2023-05-22T18:32:36.873Z,100.00
2023-05-22T18:35:08.962Z,100.00
2023-05-22T18:37:40.402Z,100.00
2023-05-22T18:40:12.492Z,100.00
2023-05-22T18:42:43.864Z,100.00
2023-05-22T18:45:15.303Z,100.00
2023-05-22T18:47:46.698Z,100.00
2023-05-22T18:50:18.207Z,100.00
2023-05-22T18:52:49.535Z,100.00
2023-05-22T18:55:21.998Z,100.00
2023-05-22T18:57:53.546Z,100.00
2023-05-22T19:00:24.957Z,100.00
2023-05-22T19:02:56.440Z,100.00
2023-05-22T19:05:27.866Z,100.00
2023-05-22T19:07:59.236Z,100.00
2023-05-22T19:10:30.604Z,100.00
2023-05-22T19:13:01.991Z,100.00
2023-05-22T19:15:37.512Z,100.00
2023-05-22T19:18:09.012Z,100.00
2023-05-22T19:20:41.066Z,100.00
2023-05-22T19:23:13.715Z,100.00
2023-05-22T19:25:45.055Z,100.00
2023-05-22T19:28:16.497Z,100.00
2023-05-22T19:30:48.012Z,100.00
2023-05-22T19:33:21.207Z,100.00
2023-05-22T19:35:53.324Z,100.00
2023-05-22T19:38:25.038Z,100.00
2023-05-22T19:40:56.454Z,100.00
2023-05-22T19:43:28.014Z,100.00
2023-05-22T19:45:59.501Z,100.00
2023-05-22T19:48:33.138Z,100.00
2023-05-22T19:51:05.123Z,100.00
2023-05-22T19:53:36.591Z,100.00
2023-05-22T19:56:08.158Z,100.00
2023-05-22T19:58:39.711Z,100.00
2023-05-22T20:01:11.143Z,100.00
2023-05-22T20:03:42.694Z,100.00
2023-05-22T20:06:14.435Z,100.00
2023-05-22T20:08:46.014Z,100.00
2023-05-22T20:11:17.335Z,100.00
2023-05-22T20:13:48.677Z,100.00
2023-05-22T20:16:20.487Z,100.00
2023-05-22T20:18:54.015Z,100.00
2023-05-22T20:21:25.551Z,100.00
2023-05-22T20:23:57.037Z,100.00
2023-05-22T20:26:28.418Z,100.00
2023-05-22T20:28:59.771Z,100.00
2023-05-22T20:31:31.551Z,100.00
2023-05-22T20:34:04.618Z,100.00
2023-05-22T20:36:36.277Z,100.00
2023-05-22T20:39:09.047Z,100.00
2023-05-22T20:41:40.364Z,100.00
2023-05-22T20:44:11.690Z,100.00
2023-05-22T20:46:43.095Z,100.00
2023-05-22T20:49:14.450Z,100.00
2023-05-22T20:51:50.003Z,100.00
2023-05-22T20:54:21.346Z,100.00
2023-05-22T20:56:54.618Z,100.00
2023-05-22T20:59:26.102Z,100.00
2023-05-22T21:01:57.834Z,100.00
2023-05-22T21:04:29.254Z,100.00
2023-05-22T21:07:00.777Z,100.00
2023-05-22T21:09:32.087Z,100.00
2023-05-22T21:12:03.939Z,100.00
2023-05-22T21:14:35.278Z,100.00
2023-05-22T21:17:06.848Z,100.00
2023-05-22T21:19:38.332Z,100.00
2023-05-22T21:22:09.678Z,100.00
2023-05-22T21:24:40.994Z,100.00
2023-05-22T21:27:12.336Z,100.00
2023-05-22T21:29:43.632Z,100.00
2023-05-22T21:32:14.938Z,100.00
2023-05-22T21:34:46.682Z,100.00
2023-05-22T21:37:18.028Z,100.00
2023-05-22T21:39:49.793Z,100.00
2023-05-22T21:42:21.718Z,100.00
2023-05-22T21:44:53.012Z,100.00
2023-05-22T21:47:24.379Z,100.00
2023-05-22T21:49:55.721Z,100.00
2023-05-22T21:52:28.583Z,100.00
2023-05-22T21:55:02.147Z,100.00
2023-05-22T21:57:34.196Z,100.00
2023-05-22T22:00:06.053Z,100.00
2023-05-22T22:02:37.449Z,100.00
2023-05-22T22:05:11.507Z,100.00
2023-05-22T22:07:42.812Z,100.00
2023-05-22T22:10:14.172Z,100.00
2023-05-22T22:12:45.485Z,100.00
2023-05-22T22:15:17.103Z,100.00
2023-05-22T22:17:49.990Z,100.00
2023-05-22T22:20:30.539Z,100.00
2023-05-22T22:23:15.021Z,100.00
2023-05-22T22:25:46.451Z,100.00
2023-05-22T22:28:17.788Z,100.00
2023-05-22T22:30:49.155Z,100.00
2023-05-22T22:33:22.489Z,100.00
2023-05-22T22:35:53.915Z,100.00
2023-05-22T22:38:25.262Z,100.00
2023-05-22T22:40:56.576Z,100.00
2023-05-22T22:43:27.954Z,100.00
2023-05-22T22:45:59.311Z,100.00
2023-05-22T22:48:30.669Z,100.00
2023-05-22T22:51:02.510Z,100.00
2023-05-22T22:53:33.864Z,100.00
2023-05-22T22:56:05.497Z,100.00
2023-05-22T22:58:36.819Z,100.00
2023-05-22T23:01:08.289Z,100.00
2023-05-22T23:03:39.664Z,100.00
2023-05-22T23:06:11.197Z,100.00
2023-05-22T23:08:42.517Z,100.00
2023-05-22T23:11:13.825Z,100.00
2023-05-22T23:13:45.356Z,100.00
2023-05-22T23:16:16.800Z,100.00
2023-05-22T23:18:48.255Z,100.00
2023-05-22T23:21:19.628Z,100.00
2023-05-22T23:23:50.935Z,100.00
2023-05-22T23:26:22.382Z,100.00
2023-05-22T23:28:54.090Z,100.00
2023-05-22T23:31:26.126Z,100.00
2023-05-22T23:33:58.566Z,100.00
2023-05-22T23:36:29.927Z,100.00
2023-05-22T23:39:01.234Z,100.00
2023-05-22T23:41:33.308Z,100.00
2023-05-22T23:44:04.653Z,100.00
2023-05-22T23:46:37.517Z,100.00
2023-05-22T23:49:09.113Z,100.00
2023-05-22T23:51:40.486Z,100.00
2023-05-22T23:54:13.050Z,100.00
2023-05-22T23:56:45.068Z,100.00
2023-05-22T23:59:16.663Z,100.00
